createdAt,value
2023-02-11T00:01:16.658Z,102522.88
2023-02-11T00:04:19.595Z,102518.47
2023-02-11T00:07:22.545Z,102524.88
2023-02-11T00:10:25.440Z,102513.53
2023-02-11T00:13:28.465Z,102500.94
2023-02-11T00:16:32.574Z,102509.13
2023-02-11T00:19:35.540Z,102511.31
2023-02-11T00:22:38.493Z,102509.47
2023-02-11T00:25:43.270Z,102512.81
2023-02-11T00:28:47.265Z,102513.44
2023-02-11T00:31:51.913Z,102508.22
2023-02-11T00:34:55.472Z,102500.94
2023-02-11T00:38:01.350Z,102495.47
2023-02-11T00:41:05.075Z,102502.06
2023-02-11T00:44:07.926Z,102497.50
2023-02-11T00:47:10.746Z,102481.56
2023-02-11T00:50:13.878Z,102489.31
2023-02-11T00:53:16.801Z,102486.91
2023-02-11T00:56:20.562Z,102477.56
2023-02-11T00:59:23.469Z,102479.31
2023-02-11T01:02:26.438Z,102470.31
2023-02-11T01:05:35.619Z,102462.63
2023-02-11T01:08:39.918Z,102462.81
2023-02-11T01:11:44.525Z,102459.66
2023-02-11T01:14:47.803Z,102445.13
2023-02-11T01:17:51.067Z,102447.06
2023-02-11T01:20:55.983Z,102437.06
2023-02-11T01:23:59.394Z,102434.47
2023-02-11T01:27:02.278Z,102418.66
2023-02-11T01:30:07.042Z,102424.53
2023-02-11T01:33:09.967Z,102414.38
2023-02-11T01:36:13.419Z,102411.06
2023-02-11T01:39:16.772Z,102411.91
2023-02-11T01:42:24.212Z,102409.59
2023-02-11T01:45:46.272Z,102414.66
2023-02-11T01:48:55.481Z,102406.78
2023-02-11T01:52:13.408Z,102412.97
2023-02-11T01:55:35.850Z,102416.06
2023-02-11T01:58:42.382Z,102414.81
2023-02-11T02:01:56.290Z,102409.91
2023-02-11T02:05:28.816Z,102409.97
2023-02-11T02:08:38.982Z,102409.72
2023-02-11T02:11:44.908Z,102394.47
2023-02-11T02:14:47.751Z,102402.56
2023-02-11T02:18:01.726Z,102407.13
2023-02-11T02:21:36.498Z,102403.81
2023-02-11T02:25:01.204Z,102404.84
2023-02-11T02:28:44.546Z,102405.56
2023-02-11T02:31:55.154Z,102397.97
2023-02-11T02:35:26.803Z,102398.91
2023-02-11T02:38:38.778Z,102394.97
2023-02-11T02:41:42.846Z,102396.69
2023-02-11T02:44:53.532Z,102394.72
2023-02-11T02:47:56.727Z,102398.41
2023-02-11T02:51:32.998Z,102402.16
2023-02-11T02:54:54.329Z,102393.06
2023-02-11T02:58:17.449Z,102391.81
2023-02-11T03:01:26.558Z,102391.97
2023-02-11T03:04:45.169Z,102398.16
2023-02-11T03:07:56.067Z,102391.69
2023-02-11T03:11:01.643Z,102391.13
2023-02-11T03:14:11.327Z,102392.25
2023-02-11T03:17:15.439Z,102386.75
2023-02-11T03:20:22.065Z,102381.69
2023-02-11T03:23:37.853Z,102377.50
2023-02-11T03:26:46.778Z,102381.19
2023-02-11T03:30:18.778Z,102381.88
2023-02-11T03:33:30.691Z,102370.13
2023-02-11T03:36:46.234Z,102371.19
2023-02-11T03:39:56.233Z,102368.69
2023-02-11T03:43:23.224Z,102353.41
2023-02-11T03:46:38.202Z,102359.66
2023-02-11T03:49:45.140Z,102353.69
2023-02-11T03:52:50.020Z,102343.69
2023-02-11T03:55:55.391Z,102333.69
2023-02-11T03:58:58.410Z,102337.25
2023-02-11T04:02:01.304Z,102332.97
2023-02-11T04:05:06.777Z,102337.50
2023-02-11T04:08:09.817Z,102330.25
2023-02-11T04:11:12.894Z,102321.41
2023-02-11T04:14:16.227Z,102317.38
2023-02-11T04:17:19.294Z,102316.28
2023-02-11T04:20:22.174Z,102308.13
2023-02-11T04:23:25.013Z,102304.00
2023-02-11T04:26:27.966Z,102306.56
2023-02-11T04:29:32.132Z,102306.09
2023-02-11T04:32:38.356Z,102298.13
2023-02-11T04:35:41.551Z,102294.19
2023-02-11T04:38:44.501Z,102291.44
2023-02-11T04:41:47.418Z,102289.84
2023-02-11T04:44:50.379Z,102283.38
2023-02-11T04:47:53.264Z,102290.00
2023-02-11T04:50:56.326Z,102289.16
2023-02-11T04:53:59.390Z,102284.09
2023-02-11T04:57:05.633Z,102287.47
2023-02-11T05:00:10.085Z,102277.25
2023-02-11T05:03:13.488Z,102279.41
2023-02-11T05:06:16.258Z,102283.22
2023-02-11T05:09:19.241Z,102280.25
2023-02-11T05:12:22.158Z,102281.06
2023-02-11T05:15:25.045Z,102285.97
2023-02-11T05:18:28.228Z,102273.47
2023-02-11T05:21:31.384Z,102276.09
2023-02-11T05:24:34.647Z,102285.38
2023-02-11T05:27:37.742Z,102287.84
2023-02-11T05:30:40.866Z,102288.97
2023-02-11T05:33:43.951Z,102285.88
2023-02-11T05:36:46.885Z,102296.47
2023-02-11T05:39:49.925Z,102291.09
2023-02-11T05:42:52.886Z,102286.06
2023-02-11T05:45:55.812Z,102286.19
2023-02-11T05:48:58.974Z,102296.03
2023-02-11T05:52:01.914Z,102292.38
2023-02-11T05:55:05.251Z,102288.91
2023-02-11T05:58:10.975Z,102290.75
2023-02-11T06:01:13.970Z,102292.22
2023-02-11T06:04:16.910Z,102289.34
2023-02-11T06:07:19.982Z,102295.66
2023-02-11T06:10:22.869Z,102300.78
2023-02-11T06:13:25.782Z,102294.88
2023-02-11T06:16:28.807Z,102294.88
2023-02-11T06:19:31.875Z,102297.41
2023-02-11T06:22:35.122Z,102301.91
2023-02-11T06:25:38.081Z,102295.63
2023-02-11T06:28:42.067Z,102303.47
2023-02-11T06:31:45.250Z,102298.44
2023-02-11T06:34:48.350Z,102287.78
2023-02-11T06:37:53.958Z,102278.75
2023-02-11T06:40:57.129Z,102287.97
2023-02-11T06:43:59.992Z,102277.31
2023-02-11T06:47:02.930Z,102274.75
2023-02-11T06:50:08.120Z,102272.56
2023-02-11T06:53:11.033Z,102271.78
2023-02-11T06:56:20.281Z,102265.16
2023-02-11T06:59:23.239Z,102265.66
2023-02-11T07:02:26.403Z,102268.81
2023-02-11T07:05:29.701Z,102275.84
2023-02-11T07:08:37.220Z,102263.38
2023-02-11T07:11:40.051Z,102263.47
2023-02-11T07:14:43.238Z,102267.34
2023-02-11T07:17:46.163Z,102269.41
2023-02-11T07:20:49.041Z,102265.44
2023-02-11T07:23:52.198Z,102263.81
2023-02-11T07:26:55.160Z,102262.44
2023-02-11T07:29:58.066Z,102271.03
2023-02-11T07:33:01.027Z,102264.06
2023-02-11T07:36:05.305Z,102255.44
2023-02-11T07:39:11.024Z,102256.59
2023-02-11T07:42:14.183Z,102258.59
2023-02-11T07:45:18.278Z,102260.19
2023-02-11T07:48:21.308Z,102251.72
2023-02-11T07:51:27.673Z,102255.00
2023-02-11T07:54:30.946Z,102252.59
2023-02-11T07:57:33.931Z,102253.00
2023-02-11T08:00:37.226Z,102250.19
2023-02-11T08:03:42.909Z,102248.13
2023-02-11T08:06:46.026Z,102248.19
2023-02-11T08:09:49.143Z,102237.78
2023-02-11T08:12:52.157Z,102234.84
2023-02-11T08:15:57.838Z,102238.72
2023-02-11T08:19:04.673Z,102239.06
2023-02-11T08:22:07.803Z,102241.13
2023-02-11T08:25:13.215Z,102239.84
2023-02-11T08:28:16.061Z,102237.94
2023-02-11T08:31:28.225Z,102229.84
2023-02-11T08:34:31.268Z,102232.03
2023-02-11T08:37:34.667Z,102231.84
2023-02-11T08:40:37.570Z,102230.66
2023-02-11T08:43:44.450Z,102223.28
2023-02-11T08:46:47.819Z,102222.69
2023-02-11T08:49:50.734Z,102219.53
2023-02-11T08:52:53.630Z,102223.00
2023-02-11T08:55:56.697Z,102212.81
2023-02-11T08:58:59.722Z,102217.09
2023-02-11T09:02:04.991Z,102223.28
2023-02-11T09:05:09.215Z,102215.34
2023-02-11T09:08:12.444Z,102217.06
2023-02-11T09:11:17.201Z,102219.16
2023-02-11T09:14:22.565Z,102231.97
2023-02-11T09:17:25.678Z,102217.88
2023-02-11T09:20:28.788Z,102225.63
2023-02-11T09:23:34.491Z,102218.75
2023-02-11T09:26:38.324Z,102200.31
2023-02-11T09:29:41.149Z,102191.09
2023-02-11T09:32:44.269Z,102185.53
2023-02-11T09:35:47.498Z,102201.03
2023-02-11T09:38:50.897Z,102203.88
2023-02-11T09:42:03.274Z,102202.53
2023-02-11T09:45:15.958Z,102184.88
2023-02-11T09:48:21.999Z,102187.22
2023-02-11T09:51:53.874Z,102181.28
2023-02-11T09:55:02.758Z,102195.69
2023-02-11T09:58:16.408Z,102183.13
2023-02-11T10:02:00.778Z,102167.31
2023-02-11T10:05:06.472Z,102155.97
2023-02-11T10:08:20.180Z,102147.13
2023-02-11T10:11:41.041Z,102144.09
2023-02-11T10:15:15.900Z,102143.78
2023-02-11T10:19:05.389Z,102132.50
2023-02-11T10:22:25.718Z,102141.66
2023-02-11T10:25:35.410Z,102132.00
2023-02-11T10:28:40.555Z,102128.38
2023-02-11T10:31:46.434Z,102128.06
2023-02-11T10:35:00.031Z,102116.19
2023-02-11T10:38:03.559Z,102122.06
2023-02-11T10:41:07.375Z,102121.31
2023-02-11T10:44:33.703Z,102117.28
2023-02-11T10:47:39.268Z,102117.19
2023-02-11T10:50:42.483Z,102113.22
2023-02-11T10:53:47.542Z,102107.75
2023-02-11T10:56:58.774Z,102111.63
2023-02-11T11:00:25.920Z,102100.44
2023-02-11T11:03:40.306Z,102103.91
2023-02-11T11:06:47.010Z,102088.88
2023-02-11T11:09:55.645Z,102080.44
2023-02-11T11:12:58.645Z,102084.94
2023-02-11T11:16:22.231Z,102088.38
2023-02-11T11:19:25.886Z,102091.63
2023-02-11T11:22:29.237Z,102089.00
2023-02-11T11:25:32.303Z,102088.03
2023-02-11T11:28:47.059Z,102084.22
2023-02-11T11:32:04.463Z,102080.78
2023-02-11T11:35:23.534Z,102076.19
2023-02-11T11:38:29.451Z,102073.88
2023-02-11T11:41:34.664Z,102069.69
2023-02-11T11:44:39.915Z,102066.97
2023-02-11T11:48:20.922Z,102045.28
2023-02-11T11:51:28.434Z,102045.50
2023-02-11T11:54:32.088Z,102054.91
2023-02-11T11:57:38.600Z,102049.22
2023-02-11T12:01:15.840Z,102034.44
2023-02-11T12:04:27.984Z,102033.72
2023-02-11T12:07:44.039Z,102033.22
2023-02-11T12:10:46.813Z,102021.75
2023-02-11T12:14:04.689Z,102015.19
2023-02-11T12:17:16.845Z,102021.00
2023-02-11T12:20:26.338Z,102012.16
2023-02-11T12:23:58.039Z,102008.19
2023-02-11T12:27:10.938Z,101995.91
2023-02-11T12:30:28.765Z,101985.53
2023-02-11T12:34:04.902Z,101980.94
2023-02-11T12:37:32.879Z,101966.56
2023-02-11T12:40:55.472Z,101964.00
2023-02-11T12:43:59.273Z,101963.50
2023-02-11T12:47:25.082Z,101955.72
2023-02-11T12:51:14.520Z,101949.63
2023-02-11T12:54:54.484Z,101939.78
2023-02-11T12:58:01.916Z,101936.81
2023-02-11T13:01:18.789Z,101936.38
2023-02-11T13:04:37.696Z,101923.72
2023-02-11T13:07:45.950Z,101910.63
2023-02-11T13:10:59.819Z,101911.06
2023-02-11T13:14:41.306Z,101912.00
2023-02-11T13:17:58.413Z,101895.47
2023-02-11T13:21:16.960Z,101896.00
2023-02-11T13:24:26.553Z,101898.78
2023-02-11T13:27:51.356Z,101891.56
2023-02-11T13:31:05.016Z,101903.41
2023-02-11T13:34:47.988Z,101908.28
2023-02-11T13:37:51.336Z,101914.44
2023-02-11T13:41:06.187Z,101913.41
2023-02-11T13:44:09.127Z,101901.53
2023-02-11T13:47:30.439Z,101909.91
2023-02-11T13:50:39.758Z,101907.97
2023-02-11T13:53:56.975Z,101905.97
2023-02-11T13:57:23.439Z,101902.75
2023-02-11T14:00:35.556Z,101912.06
2023-02-11T14:04:18.289Z,101904.06
2023-02-11T14:07:51.570Z,101892.22
2023-02-11T14:11:00.828Z,101877.31
2023-02-11T14:14:21.967Z,101879.94
2023-02-11T14:17:31.580Z,101880.00
2023-02-11T14:20:45.450Z,101877.66
2023-02-11T14:23:51.503Z,101883.63
2023-02-11T14:27:01.661Z,101889.38
2023-02-11T14:30:26.481Z,101897.66
2023-02-11T14:33:44.168Z,101888.03
2023-02-11T14:36:53.019Z,101891.84
2023-02-11T14:40:16.006Z,101889.59
2023-02-11T14:43:24.561Z,101903.34
2023-02-11T14:46:33.016Z,101905.28
2023-02-11T14:49:39.890Z,101904.81
2023-02-11T14:52:44.426Z,101895.59
2023-02-11T14:55:52.589Z,101892.47
2023-02-11T14:58:55.917Z,101886.63
2023-02-11T15:01:59.440Z,101883.13
2023-02-11T15:05:28.096Z,101874.94
2023-02-11T15:08:33.658Z,101875.28
2023-02-11T15:11:42.703Z,101871.91
2023-02-11T15:14:53.141Z,101864.72
2023-02-11T15:17:59.621Z,101865.72
2023-02-11T15:21:03.138Z,101863.16
2023-02-11T15:24:23.949Z,101867.00
2023-02-11T15:27:26.920Z,101869.47
2023-02-11T15:30:34.210Z,101857.88
2023-02-11T15:33:37.280Z,101861.72
2023-02-11T15:36:40.529Z,101844.47
2023-02-11T15:39:45.958Z,101841.88
2023-02-11T15:42:58.089Z,101839.75
2023-02-11T15:46:02.110Z,101850.03
2023-02-11T15:49:06.574Z,101850.03
2023-02-11T15:52:09.639Z,101842.63
2023-02-11T15:55:15.999Z,101854.03
2023-02-11T15:58:20.017Z,101857.00
2023-02-11T16:01:35.746Z,101858.59
2023-02-11T16:04:39.148Z,101862.56
2023-02-11T16:07:47.817Z,101867.84
2023-02-11T16:11:02.626Z,101867.16
2023-02-11T16:14:21.292Z,101857.38
2023-02-11T16:17:30.439Z,101858.53
2023-02-11T16:20:34.313Z,101862.66
2023-02-11T16:23:42.103Z,101852.78
2023-02-11T16:26:49.728Z,101844.25
2023-02-11T16:29:53.342Z,101836.50
2023-02-11T16:32:57.309Z,101842.75
2023-02-11T16:36:02.245Z,101848.38
2023-02-11T16:39:06.064Z,101842.47
2023-02-11T16:42:11.601Z,101840.53
2023-02-11T16:45:15.621Z,101831.44
2023-02-11T16:48:20.163Z,101832.09
2023-02-11T16:51:23.595Z,101840.09
2023-02-11T16:54:27.753Z,101834.16
2023-02-11T16:57:31.209Z,101827.06
2023-02-11T17:00:34.512Z,101829.41
2023-02-11T17:03:40.634Z,101832.25
2023-02-11T17:06:44.665Z,101837.09
2023-02-11T17:09:47.864Z,101825.75
2023-02-11T17:12:51.189Z,101830.25
2023-02-11T17:15:54.734Z,101828.94
2023-02-11T17:18:58.501Z,101836.44
2023-02-11T17:22:01.813Z,101828.47
2023-02-11T17:25:04.949Z,101818.50
2023-02-11T17:28:09.785Z,101826.22
2023-02-11T17:31:13.331Z,101824.84
2023-02-11T17:34:17.419Z,101811.81
2023-02-11T17:37:21.154Z,101805.84
2023-02-11T17:40:24.443Z,101796.09
2023-02-11T17:43:28.391Z,101805.47
2023-02-11T17:46:34.743Z,101818.22
2023-02-11T17:49:38.464Z,101816.66
2023-02-11T17:52:41.804Z,101811.16
2023-02-11T17:55:44.934Z,101810.75
2023-02-11T17:58:48.331Z,101812.19
2023-02-11T18:01:51.522Z,101812.41
2023-02-11T18:04:58.917Z,101810.72
2023-02-11T18:08:02.816Z,101813.22
2023-02-11T18:11:10.113Z,101810.94
2023-02-11T18:14:13.414Z,101813.41
2023-02-11T18:17:17.045Z,101817.22
2023-02-11T18:20:20.390Z,101814.97
2023-02-11T18:23:23.544Z,101818.13
2023-02-11T18:26:28.166Z,101820.97
2023-02-11T18:29:31.516Z,101814.09
2023-02-11T18:32:37.231Z,101800.84
2023-02-11T18:35:43.801Z,101811.84
2023-02-11T18:38:47.203Z,101804.25
2023-02-11T18:41:54.547Z,101805.72
2023-02-11T18:44:59.806Z,101801.03
2023-02-11T18:48:05.390Z,101813.25
2023-02-11T18:51:15.939Z,101810.53
2023-02-11T18:54:19.026Z,101816.06
2023-02-11T18:57:22.328Z,101812.44
2023-02-11T19:00:25.583Z,101810.22
2023-02-11T19:03:28.532Z,101806.72
2023-02-11T19:06:35.561Z,101800.88
2023-02-11T19:09:41.417Z,101799.88
2023-02-11T19:12:44.719Z,101801.00
2023-02-11T19:15:47.990Z,101804.22
2023-02-11T19:18:51.270Z,101810.59
2023-02-11T19:21:56.019Z,101813.41
2023-02-11T19:24:59.154Z,101820.38
2023-02-11T19:28:03.403Z,101823.53
2023-02-11T19:31:10.000Z,101819.50
2023-02-11T19:34:16.048Z,101822.78
2023-02-11T19:37:19.659Z,101828.50
2023-02-11T19:40:25.710Z,101821.22
2023-02-11T19:43:29.172Z,101822.97
2023-02-11T19:46:37.610Z,101819.66
2023-02-11T19:49:40.882Z,101817.41
2023-02-11T19:52:44.731Z,101821.59
2023-02-11T19:55:48.902Z,101810.41
2023-02-11T19:58:52.066Z,101809.75
2023-02-11T20:01:55.367Z,101821.50
2023-02-11T20:04:58.531Z,101805.31
2023-02-11T20:08:01.426Z,101802.38
2023-02-11T20:11:06.931Z,101808.88
2023-02-11T20:14:12.866Z,101808.50
2023-02-11T20:17:16.141Z,101815.59
2023-02-11T20:20:19.547Z,101801.31
2023-02-11T20:23:24.368Z,101811.84
2023-02-11T20:26:30.729Z,101811.78
2023-02-11T20:29:36.691Z,101816.44
2023-02-11T20:32:41.247Z,101818.72
2023-02-11T20:35:44.178Z,101820.41
2023-02-11T20:38:48.434Z,101824.28
2023-02-11T20:41:53.400Z,101822.97
2023-02-11T20:44:56.565Z,101820.25
2023-02-11T20:47:59.773Z,101823.41
2023-02-11T20:51:05.301Z,101818.38
2023-02-11T20:54:12.879Z,101819.31
2023-02-11T20:57:16.141Z,101818.09
2023-02-11T21:00:19.545Z,101817.75
2023-02-11T21:03:22.824Z,101812.94
2023-02-11T21:06:30.793Z,101806.00
2023-02-11T21:09:33.953Z,101800.59
2023-02-11T21:12:37.254Z,101793.50
2023-02-11T21:15:40.581Z,101793.78
2023-02-11T21:18:44.237Z,101801.44
2023-02-11T21:21:50.609Z,101793.09
2023-02-11T21:24:53.730Z,101804.50
2023-02-11T21:27:56.885Z,101796.75
2023-02-11T21:31:00.080Z,101798.06
2023-02-11T21:34:03.986Z,101805.91
2023-02-11T21:37:07.243Z,101808.59
2023-02-11T21:40:11.963Z,101803.81
2023-02-11T21:43:15.234Z,101810.88
2023-02-11T21:46:20.198Z,101805.38
2023-02-11T21:49:23.364Z,101804.94
2023-02-11T21:52:26.456Z,101806.94
2023-02-11T21:55:29.593Z,101804.84
2023-02-11T21:58:33.673Z,101801.97
2023-02-11T22:01:37.317Z,101799.81
2023-02-11T22:04:40.673Z,101811.81
2023-02-11T22:07:43.828Z,101809.91
2023-02-11T22:10:47.550Z,101811.75
2023-02-11T22:13:55.630Z,101805.28
2023-02-11T22:16:58.544Z,101813.19
2023-02-11T22:20:01.650Z,101807.38
2023-02-11T22:23:04.727Z,101808.06
2023-02-11T22:26:13.097Z,101814.94
2023-02-11T22:29:16.458Z,101824.19
2023-02-11T22:32:19.588Z,101826.00
2023-02-11T22:35:22.441Z,101829.81
2023-02-11T22:38:25.735Z,101838.19
2023-02-11T22:41:29.427Z,101843.59
2023-02-11T22:44:32.312Z,101844.63
2023-02-11T22:47:37.667Z,101843.69
2023-02-11T22:50:40.899Z,101846.03
2023-02-11T22:53:44.637Z,101847.47
2023-02-11T22:56:51.073Z,101841.78
2023-02-11T22:59:54.548Z,101841.34
2023-02-11T23:02:57.524Z,101837.94
2023-02-11T23:06:01.384Z,101841.50
2023-02-11T23:09:08.857Z,101833.34
2023-02-11T23:12:11.776Z,101826.09
2023-02-11T23:15:14.650Z,101829.16
2023-02-11T23:18:17.537Z,101833.50
2023-02-11T23:21:23.890Z,101826.44
2023-02-11T23:24:26.779Z,101817.03
2023-02-11T23:27:29.607Z,101820.34
2023-02-11T23:30:32.503Z,101823.47
2023-02-11T23:33:35.418Z,101812.16
2023-02-11T23:36:38.386Z,101829.13
2023-02-11T23:39:42.210Z,101818.34
2023-02-11T23:42:45.902Z,101826.44
2023-02-11T23:45:49.056Z,101831.00
2023-02-11T23:48:52.594Z,101828.09
2023-02-11T23:51:55.641Z,101835.66
2023-02-11T23:54:58.556Z,101837.16
2023-02-11T23:58:01.439Z,101838.03
